Terminal Aerodrome Forecast
Issued by NWS Grand Forks, ND

Home | Current Version | Previous Version | Text Only | Print | Product List | Glossary Off
Versions: 1 2 3 4 5 6 7 8 9 10 11 12 13 14 15 16 17 18 19 20 21 22 23 24

000
FTUS43 KFGF 192130 AAC
TAFGFK
TAF AMD
KGFK 192130Z 1922/2018 15018G25KT P6SM OVC060
     FM200000 15024G36KT P6SM VCTS OVC020CB
      TEMPO 2001/2003 2SM -TSRA OVC040CB
     FM200300 15018G27KT P6SM VCTS OVC040CB
     FM200500 25014G22KT P6SM OVC045
     FM201200 26011KT P6SM SCT110=

USA.gov is the U.S. government's official web portal to all federal, state and local government web resources and services.